sensor_id;sensor_type;location;lat;lon;timestamp;P1;durP1;ratioP1;P2;durP2;ratioP2
29812;SDS011;16707;48.106;11.548;2022-07-06T00:02:15;3.97;;;3.45;;
29812;SDS011;16707;48.106;11.548;2022-07-06T00:04:46;4.10;;;3.17;;
29812;SDS011;16707;48.106;11.548;2022-07-06T00:07:17;3.20;;;2.90;;
29812;SDS011;16707;48.106;11.548;2022-07-06T00:09:45;3.53;;;2.92;;
29812;SDS011;16707;48.106;11.548;2022-07-06T00:12:14;4.22;;;3.00;;
29812;SDS011;16707;48.106;11.548;2022-07-06T00:14:43;3.63;;;3.33;;
29812;SDS011;16707;48.106;11.548;2022-07-06T00:17:14;4.05;;;3.15;;
29812;SDS011;16707;48.106;11.548;2022-07-06T00:19:46;4.63;;;2.90;;
29812;SDS011;16707;48.106;11.548;2022-07-06T00:24:50;4.00;;;2.83;;
29812;SDS011;16707;48.106;11.548;2022-07-06T00:27:17;3.03;;;2.58;;
29812;SDS011;16707;48.106;11.548;2022-07-06T00:29:44;8.77;;;3.08;;
29812;SDS011;16707;48.106;11.548;2022-07-06T00:32:12;3.38;;;2.67;;
29812;SDS011;16707;48.106;11.548;2022-07-06T00:34:42;3.67;;;2.70;;
29812;SDS011;16707;48.106;11.548;2022-07-06T00:37:09;3.30;;;2.55;;
29812;SDS011;16707;48.106;11.548;2022-07-06T00:39:38;2.83;;;2.47;;
29812;SDS011;16707;48.106;11.548;2022-07-06T00:42:05;4.20;;;2.65;;
29812;SDS011;16707;48.106;11.548;2022-07-06T00:44:33;4.07;;;2.67;;
29812;SDS011;16707;48.106;11.548;2022-07-06T00:47:03;4.05;;;2.90;;
29812;SDS011;16707;48.106;11.548;2022-07-06T00:49:32;4.18;;;2.75;;
29812;SDS011;16707;48.106;11.548;2022-07-06T00:52:28;4.68;;;3.33;;
29812;SDS011;16707;48.106;11.548;2022-07-06T00:54:56;3.85;;;3.20;;
29812;SDS011;16707;48.106;11.548;2022-07-06T00:57:34;4.72;;;3.22;;
29812;SDS011;16707;48.106;11.548;2022-07-06T01:00:01;4.93;;;3.00;;
29812;SDS011;16707;48.106;11.548;2022-07-06T01:02:30;3.70;;;2.65;;
29812;SDS011;16707;48.106;11.548;2022-07-06T01:04:57;3.45;;;2.85;;
29812;SDS011;16707;48.106;11.548;2022-07-06T01:07:30;3.30;;;2.78;;
29812;SDS011;16707;48.106;11.548;2022-07-06T01:09:59;3.13;;;2.50;;
29812;SDS011;16707;48.106;11.548;2022-07-06T01:12:31;3.70;;;2.80;;
29812;SDS011;16707;48.106;11.548;2022-07-06T01:15:01;2.85;;;2.55;;
29812;SDS011;16707;48.106;11.548;2022-07-06T01:17:30;2.40;;;2.20;;
29812;SDS011;16707;48.106;11.548;2022-07-06T01:20:07;2.90;;;2.60;;
29812;SDS011;16707;48.106;11.548;2022-07-06T01:22:36;2.58;;;2.38;;
29812;SDS011;16707;48.106;11.548;2022-07-06T01:25:07;3.15;;;2.30;;
29812;SDS011;16707;48.106;11.548;2022-07-06T01:27:44;3.00;;;2.70;;
29812;SDS011;16707;48.106;11.548;2022-07-06T01:30:13;3.47;;;2.60;;
29812;SDS011;16707;48.106;11.548;2022-07-06T01:32:42;3.03;;;2.50;;
29812;SDS011;16707;48.106;11.548;2022-07-06T01:35:11;2.78;;;2.58;;
29812;SDS011;16707;48.106;11.548;2022-07-06T01:37:40;2.65;;;2.45;;
29812;SDS011;16707;48.106;11.548;2022-07-06T01:40:17;3.58;;;2.50;;
29812;SDS011;16707;48.106;11.548;2022-07-06T01:42:50;3.90;;;2.50;;
29812;SDS011;16707;48.106;11.548;2022-07-06T01:45:18;2.83;;;2.30;;
29812;SDS011;16707;48.106;11.548;2022-07-06T01:47:46;2.85;;;2.63;;
29812;SDS011;16707;48.106;11.548;2022-07-06T01:50:18;3.78;;;2.65;;
29812;SDS011;16707;48.106;11.548;2022-07-06T01:52:47;3.08;;;2.70;;
29812;SDS011;16707;48.106;11.548;2022-07-06T01:55:14;2.88;;;2.67;;
29812;SDS011;16707;48.106;11.548;2022-07-06T01:57:49;2.58;;;2.38;;
29812;SDS011;16707;48.106;11.548;2022-07-06T02:00:19;3.92;;;2.95;;
29812;SDS011;16707;48.106;11.548;2022-07-06T02:02:46;2.78;;;2.58;;
29812;SDS011;16707;48.106;11.548;2022-07-06T02:05:15;3.00;;;2.70;;
29812;SDS011;16707;48.106;11.548;2022-07-06T02:07:45;2.90;;;2.28;;
29812;SDS011;16707;48.106;11.548;2022-07-06T02:10:12;2.85;;;2.60;;
29812;SDS011;16707;48.106;11.548;2022-07-06T02:12:39;3.10;;;2.55;;
29812;SDS011;16707;48.106;11.548;2022-07-06T02:15:08;3.13;;;2.90;;
29812;SDS011;16707;48.106;11.548;2022-07-06T02:17:36;3.72;;;2.40;;
29812;SDS011;16707;48.106;11.548;2022-07-06T02:20:04;2.67;;;2.47;;
29812;SDS011;16707;48.106;11.548;2022-07-06T02:22:37;2.85;;;2.60;;
29812;SDS011;16707;48.106;11.548;2022-07-06T02:25:07;2.45;;;2.25;;
29812;SDS011;16707;48.106;11.548;2022-07-06T02:27:38;2.30;;;2.10;;
29812;SDS011;16707;48.106;11.548;2022-07-06T02:30:05;2.97;;;2.72;;
29812;SDS011;16707;48.106;11.548;2022-07-06T02:32:39;2.95;;;2.15;;
29812;SDS011;16707;48.106;11.548;2022-07-06T02:35:10;2.10;;;2.00;;
29812;SDS011;16707;48.106;11.548;2022-07-06T02:37:39;4.03;;;2.78;;
29812;SDS011;16707;48.106;11.548;2022-07-06T02:40:06;3.30;;;2.55;;
29812;SDS011;16707;48.106;11.548;2022-07-06T02:42:35;2.83;;;2.53;;
29812;SDS011;16707;48.106;11.548;2022-07-06T02:45:09;3.17;;;2.47;;
29812;SDS011;16707;48.106;11.548;2022-07-06T02:47:45;2.70;;;2.50;;
29812;SDS011;16707;48.106;11.548;2022-07-06T02:50:13;2.50;;;2.30;;
29812;SDS011;16707;48.106;11.548;2022-07-06T02:52:44;3.95;;;2.58;;
29812;SDS011;16707;48.106;11.548;2022-07-06T02:55:19;2.58;;;2.38;;
29812;SDS011;16707;48.106;11.548;2022-07-06T02:57:46;4.07;;;2.42;;
29812;SDS011;16707;48.106;11.548;2022-07-06T03:00:17;2.75;;;2.38;;
29812;SDS011;16707;48.106;11.548;2022-07-06T03:02:53;2.67;;;2.28;;
29812;SDS011;16707;48.106;11.548;2022-07-06T03:05:21;4.20;;;3.08;;
29812;SDS011;16707;48.106;11.548;2022-07-06T03:07:52;2.38;;;2.17;;
29812;SDS011;16707;48.106;11.548;2022-07-06T03:10:22;3.65;;;2.63;;
29812;SDS011;16707;48.106;11.548;2022-07-06T03:12:51;2.75;;;2.30;;
29812;SDS011;16707;48.106;11.548;2022-07-06T03:15:18;2.47;;;2.28;;
29812;SDS011;16707;48.106;11.548;2022-07-06T03:17:45;2.90;;;2.60;;
29812;SDS011;16707;48.106;11.548;2022-07-06T03:20:12;3.08;;;2.70;;
29812;SDS011;16707;48.106;11.548;2022-07-06T03:22:40;3.15;;;2.83;;
29812;SDS011;16707;48.106;11.548;2022-07-06T03:25:08;3.28;;;2.70;;
29812;SDS011;16707;48.106;11.548;2022-07-06T03:27:36;4.03;;;2.58;;
29812;SDS011;16707;48.106;11.548;2022-07-06T03:30:04;3.55;;;2.55;;
29812;SDS011;16707;48.106;11.548;2022-07-06T03:32:33;3.72;;;2.58;;
29812;SDS011;16707;48.106;11.548;2022-07-06T03:35:06;3.30;;;3.00;;
29812;SDS011;16707;48.106;11.548;2022-07-06T03:37:34;3.20;;;2.90;;
29812;SDS011;16707;48.106;11.548;2022-07-06T03:40:02;5.28;;;2.90;;
29812;SDS011;16707;48.106;11.548;2022-07-06T03:42:37;3.80;;;2.70;;
29812;SDS011;16707;48.106;11.548;2022-07-06T03:45:08;4.30;;;2.80;;
29812;SDS011;16707;48.106;11.548;2022-07-06T03:47:36;4.03;;;2.90;;
29812;SDS011;16707;48.106;11.548;2022-07-06T03:50:04;4.00;;;2.90;;
29812;SDS011;16707;48.106;11.548;2022-07-06T03:52:37;2.93;;;2.60;;
29812;SDS011;16707;48.106;11.548;2022-07-06T03:55:10;3.40;;;2.97;;
29812;SDS011;16707;48.106;11.548;2022-07-06T03:57:45;3.00;;;2.70;;
29812;SDS011;16707;48.106;11.548;2022-07-06T04:00:15;3.78;;;2.90;;
29812;SDS011;16707;48.106;11.548;2022-07-06T04:02:43;3.85;;;2.90;;
29812;SDS011;16707;48.106;11.548;2022-07-06T04:05:10;3.35;;;2.80;;
29812;SDS011;16707;48.106;11.548;2022-07-06T04:07:40;3.67;;;2.50;;
29812;SDS011;16707;48.106;11.548;2022-07-06T04:10:08;2.95;;;2.40;;
29812;SDS011;16707;48.106;11.548;2022-07-06T04:12:39;3.03;;;2.53;;
29812;SDS011;16707;48.106;11.548;2022-07-06T04:15:11;4.35;;;2.75;;
29812;SDS011;16707;48.106;11.548;2022-07-06T04:17:45;3.58;;;2.45;;
29812;SDS011;16707;48.106;11.548;2022-07-06T04:20:18;2.63;;;2.42;;
29812;SDS011;16707;48.106;11.548;2022-07-06T04:22:45;4.35;;;2.67;;
29812;SDS011;16707;48.106;11.548;2022-07-06T04:25:15;3.17;;;2.70;;
29812;SDS011;16707;48.106;11.548;2022-07-06T04:27:47;4.07;;;2.50;;
29812;SDS011;16707;48.106;11.548;2022-07-06T04:30:15;3.10;;;2.50;;
29812;SDS011;16707;48.106;11.548;2022-07-06T04:32:47;2.85;;;2.47;;
29812;SDS011;16707;48.106;11.548;2022-07-06T04:35:15;3.15;;;2.40;;
29812;SDS011;16707;48.106;11.548;2022-07-06T04:37:42;2.63;;;2.42;;
29812;SDS011;16707;48.106;11.548;2022-07-06T04:40:10;2.70;;;2.25;;
29812;SDS011;16707;48.106;11.548;2022-07-06T04:42:43;4.22;;;2.65;;
29812;SDS011;16707;48.106;11.548;2022-07-06T04:45:11;2.30;;;2.10;;
29812;SDS011;16707;48.106;11.548;2022-07-06T04:47:39;2.60;;;2.40;;
29812;SDS011;16707;48.106;11.548;2022-07-06T04:50:08;3.50;;;2.55;;
29812;SDS011;16707;48.106;11.548;2022-07-06T04:52:36;2.70;;;2.45;;
29812;SDS011;16707;48.106;11.548;2022-07-06T04:55:04;3.70;;;2.10;;
29812;SDS011;16707;48.106;11.548;2022-07-06T04:57:34;2.25;;;1.95;;
29812;SDS011;16707;48.106;11.548;2022-07-06T05:00:05;2.83;;;1.83;;
29812;SDS011;16707;48.106;11.548;2022-07-06T05:02:35;2.75;;;2.00;;
29812;SDS011;16707;48.106;11.548;2022-07-06T05:05:02;3.45;;;2.00;;
29812;SDS011;16707;48.106;11.548;2022-07-06T05:07:30;1.88;;;1.77;;
29812;SDS011;16707;48.106;11.548;2022-07-06T05:10:02;2.35;;;2.10;;
29812;SDS011;16707;48.106;11.548;2022-07-06T05:12:34;3.88;;;2.00;;
29812;SDS011;16707;48.106;11.548;2022-07-06T05:15:07;2.17;;;1.50;;
29812;SDS011;16707;48.106;11.548;2022-07-06T05:17:37;1.85;;;1.67;;
29812;SDS011;16707;48.106;11.548;2022-07-06T05:20:18;2.10;;;1.90;;
29812;SDS011;16707;48.106;11.548;2022-07-06T05:22:52;2.95;;;1.70;;
29812;SDS011;16707;48.106;11.548;2022-07-06T05:25:19;1.42;;;1.33;;
29812;SDS011;16707;48.106;11.548;2022-07-06T05:27:49;3.17;;;1.90;;
29812;SDS011;16707;48.106;11.548;2022-07-06T05:30:16;2.42;;;1.70;;
29812;SDS011;16707;48.106;11.548;2022-07-06T05:32:48;2.63;;;1.90;;
29812;SDS011;16707;48.106;11.548;2022-07-06T05:35:15;1.80;;;1.70;;
29812;SDS011;16707;48.106;11.548;2022-07-06T05:37:42;2.38;;;1.55;;
29812;SDS011;16707;48.106;11.548;2022-07-06T05:40:10;1.85;;;1.75;;
29812;SDS011;16707;48.106;11.548;2022-07-06T05:42:38;2.65;;;1.80;;
29812;SDS011;16707;48.106;11.548;2022-07-06T05:45:11;2.78;;;1.73;;
29812;SDS011;16707;48.106;11.548;2022-07-06T05:47:38;3.08;;;1.70;;
29812;SDS011;16707;48.106;11.548;2022-07-06T05:50:24;3.00;;;1.63;;
29812;SDS011;16707;48.106;11.548;2022-07-06T05:52:55;3.30;;;1.50;;
29812;SDS011;16707;48.106;11.548;2022-07-06T05:57:52;1.88;;;1.63;;
29812;SDS011;16707;48.106;11.548;2022-07-06T06:00:21;2.22;;;1.77;;
29812;SDS011;16707;48.106;11.548;2022-07-06T06:02:49;3.65;;;2.38;;
29812;SDS011;16707;48.106;11.548;2022-07-06T06:05:17;3.42;;;2.22;;
29812;SDS011;16707;48.106;11.548;2022-07-06T06:07:49;2.45;;;2.00;;
29812;SDS011;16707;48.106;11.548;2022-07-06T06:10:21;2.38;;;1.92;;
29812;SDS011;16707;48.106;11.548;2022-07-06T06:12:50;2.13;;;1.65;;
29812;SDS011;16707;48.106;11.548;2022-07-06T06:15:19;3.42;;;2.20;;
29812;SDS011;16707;48.106;11.548;2022-07-06T06:17:46;2.88;;;1.70;;
29812;SDS011;16707;48.106;11.548;2022-07-06T06:20:20;3.97;;;2.10;;
29812;SDS011;16707;48.106;11.548;2022-07-06T06:22:49;3.50;;;1.90;;
29812;SDS011;16707;48.106;11.548;2022-07-06T06:25:21;1.73;;;1.63;;
29812;SDS011;16707;48.106;11.548;2022-07-06T06:28:00;2.65;;;1.70;;
29812;SDS011;16707;48.106;11.548;2022-07-06T06:30:33;2.65;;;1.77;;
29812;SDS011;16707;48.106;11.548;2022-07-06T06:33:07;1.98;;;1.60;;
29812;SDS011;16707;48.106;11.548;2022-07-06T06:35:37;2.63;;;1.70;;
29812;SDS011;16707;48.106;11.548;2022-07-06T06:38:09;3.78;;;2.05;;
29812;SDS011;16707;48.106;11.548;2022-07-06T06:40:55;2.10;;;1.60;;
29812;SDS011;16707;48.106;11.548;2022-07-06T06:43:23;2.60;;;1.70;;
29812;SDS011;16707;48.106;11.548;2022-07-06T06:45:53;1.85;;;1.70;;
29812;SDS011;16707;48.106;11.548;2022-07-06T06:48:20;2.15;;;1.70;;
29812;SDS011;16707;48.106;11.548;2022-07-06T06:50:47;2.88;;;1.73;;
29812;SDS011;16707;48.106;11.548;2022-07-06T06:53:18;3.00;;;1.80;;
29812;SDS011;16707;48.106;11.548;2022-07-06T06:55:48;2.42;;;1.85;;
29812;SDS011;16707;48.106;11.548;2022-07-06T06:58:18;3.13;;;1.88;;
29812;SDS011;16707;48.106;11.548;2022-07-06T07:00:45;3.75;;;1.70;;
29812;SDS011;16707;48.106;11.548;2022-07-06T07:03:14;2.00;;;1.70;;
29812;SDS011;16707;48.106;11.548;2022-07-06T07:05:44;2.53;;;1.70;;
29812;SDS011;16707;48.106;11.548;2022-07-06T07:08:21;2.75;;;1.80;;
29812;SDS011;16707;48.106;11.548;2022-07-06T07:10:48;3.53;;;1.98;;
29812;SDS011;16707;48.106;11.548;2022-07-06T07:13:16;2.55;;;1.75;;
29812;SDS011;16707;48.106;11.548;2022-07-06T07:15:43;2.88;;;1.90;;
29812;SDS011;16707;48.106;11.548;2022-07-06T07:18:10;3.10;;;1.90;;
29812;SDS011;16707;48.106;11.548;2022-07-06T07:20:37;2.08;;;1.88;;
29812;SDS011;16707;48.106;11.548;2022-07-06T07:23:04;2.22;;;1.80;;
29812;SDS011;16707;48.106;11.548;2022-07-06T07:25:33;2.53;;;1.95;;
29812;SDS011;16707;48.106;11.548;2022-07-06T07:28:03;2.42;;;2.00;;
29812;SDS011;16707;48.106;11.548;2022-07-06T07:30:31;2.10;;;1.70;;
29812;SDS011;16707;48.106;11.548;2022-07-06T07:32:58;2.20;;;2.00;;
29812;SDS011;16707;48.106;11.548;2022-07-06T07:35:26;2.90;;;1.98;;
29812;SDS011;16707;48.106;11.548;2022-07-06T07:37:54;4.97;;;2.40;;
29812;SDS011;16707;48.106;11.548;2022-07-06T07:40:21;3.90;;;2.05;;
29812;SDS011;16707;48.106;11.548;2022-07-06T07:42:53;2.92;;;2.33;;
29812;SDS011;16707;48.106;11.548;2022-07-06T07:45:22;3.15;;;2.25;;
29812;SDS011;16707;48.106;11.548;2022-07-06T07:47:50;3.03;;;2.35;;
29812;SDS011;16707;48.106;11.548;2022-07-06T07:50:17;2.40;;;2.00;;
29812;SDS011;16707;48.106;11.548;2022-07-06T07:52:44;2.35;;;2.15;;
29812;SDS011;16707;48.106;11.548;2022-07-06T07:55:17;3.65;;;2.25;;
29812;SDS011;16707;48.106;11.548;2022-07-06T07:57:44;2.65;;;2.42;;
29812;SDS011;16707;48.106;11.548;2022-07-06T08:00:20;2.75;;;2.28;;
29812;SDS011;16707;48.106;11.548;2022-07-06T08:02:49;4.03;;;2.42;;
29812;SDS011;16707;48.106;11.548;2022-07-06T08:05:16;4.88;;;4.22;;
29812;SDS011;16707;48.106;11.548;2022-07-06T08:07:44;3.15;;;2.53;;
29812;SDS011;16707;48.106;11.548;2022-07-06T08:10:17;3.15;;;2.33;;
29812;SDS011;16707;48.106;11.548;2022-07-06T08:12:44;2.72;;;2.47;;
29812;SDS011;16707;48.106;11.548;2022-07-06T08:15:15;4.45;;;2.55;;
29812;SDS011;16707;48.106;11.548;2022-07-06T08:17:42;4.68;;;3.63;;
29812;SDS011;16707;48.106;11.548;2022-07-06T08:20:10;3.67;;;2.47;;
29812;SDS011;16707;48.106;11.548;2022-07-06T08:22:37;3.95;;;2.53;;
29812;SDS011;16707;48.106;11.548;2022-07-06T08:25:05;3.05;;;2.55;;
29812;SDS011;16707;48.106;11.548;2022-07-06T08:27:36;3.15;;;2.75;;
29812;SDS011;16707;48.106;11.548;2022-07-06T08:30:04;3.90;;;2.58;;
29812;SDS011;16707;48.106;11.548;2022-07-06T08:32:33;4.05;;;2.70;;
29812;SDS011;16707;48.106;11.548;2022-07-06T08:35:04;3.55;;;2.53;;
29812;SDS011;16707;48.106;11.548;2022-07-06T08:37:32;2.58;;;2.38;;
29812;SDS011;16707;48.106;11.548;2022-07-06T08:40:00;3.47;;;2.67;;
29812;SDS011;16707;48.106;11.548;2022-07-06T08:42:29;3.20;;;2.90;;
29812;SDS011;16707;48.106;11.548;2022-07-06T08:44:59;3.00;;;2.70;;
29812;SDS011;16707;48.106;11.548;2022-07-06T08:47:28;2.83;;;2.47;;
29812;SDS011;16707;48.106;11.548;2022-07-06T08:50:04;4.18;;;2.42;;
29812;SDS011;16707;48.106;11.548;2022-07-06T08:52:33;3.00;;;2.67;;
29812;SDS011;16707;48.106;11.548;2022-07-06T08:55:04;3.28;;;2.30;;
29812;SDS011;16707;48.106;11.548;2022-07-06T08:57:32;3.00;;;2.67;;
29812;SDS011;16707;48.106;11.548;2022-07-06T09:00:06;3.20;;;2.90;;
29812;SDS011;16707;48.106;11.548;2022-07-06T09:02:36;3.88;;;2.75;;
29812;SDS011;16707;48.106;11.548;2022-07-06T09:05:07;3.50;;;3.20;;
29812;SDS011;16707;48.106;11.548;2022-07-06T09:07:36;3.17;;;2.88;;
29812;SDS011;16707;48.106;11.548;2022-07-06T09:10:07;3.15;;;2.67;;
29812;SDS011;16707;48.106;11.548;2022-07-06T09:12:35;4.25;;;2.90;;
29812;SDS011;16707;48.106;11.548;2022-07-06T09:15:02;4.00;;;2.75;;
29812;SDS011;16707;48.106;11.548;2022-07-06T09:17:30;3.05;;;2.75;;
29812;SDS011;16707;48.106;11.548;2022-07-06T09:19:59;3.33;;;2.80;;
29812;SDS011;16707;48.106;11.548;2022-07-06T09:22:27;3.15;;;2.78;;
29812;SDS011;16707;48.106;11.548;2022-07-06T09:25:04;3.40;;;3.10;;
29812;SDS011;16707;48.106;11.548;2022-07-06T09:27:36;3.80;;;2.70;;
29812;SDS011;16707;48.106;11.548;2022-07-06T09:30:08;3.20;;;2.88;;
29812;SDS011;16707;48.106;11.548;2022-07-06T09:32:39;3.35;;;3.00;;
29812;SDS011;16707;48.106;11.548;2022-07-06T09:35:21;4.25;;;2.60;;
29812;SDS011;16707;48.106;11.548;2022-07-06T09:38:03;5.05;;;2.78;;
29812;SDS011;16707;48.106;11.548;2022-07-06T09:40:32;4.88;;;3.00;;
29812;SDS011;16707;48.106;11.548;2022-07-06T09:43:11;3.25;;;2.83;;
29812;SDS011;16707;48.106;11.548;2022-07-06T09:45:44;4.47;;;2.80;;
29812;SDS011;16707;48.106;11.548;2022-07-06T09:48:18;5.90;;;2.45;;
29812;SDS011;16707;48.106;11.548;2022-07-06T09:50:49;3.05;;;2.55;;
29812;SDS011;16707;48.106;11.548;2022-07-06T09:53:18;3.28;;;2.70;;
29812;SDS011;16707;48.106;11.548;2022-07-06T09:55:47;3.20;;;2.80;;
29812;SDS011;16707;48.106;11.548;2022-07-06T09:58:17;2.83;;;2.63;;
29812;SDS011;16707;48.106;11.548;2022-07-06T10:00:46;3.53;;;2.90;;
29812;SDS011;16707;48.106;11.548;2022-07-06T10:03:17;3.08;;;2.75;;
29812;SDS011;16707;48.106;11.548;2022-07-06T10:05:44;3.05;;;2.75;;
29812;SDS011;16707;48.106;11.548;2022-07-06T10:08:16;3.13;;;2.83;;
29812;SDS011;16707;48.106;11.548;2022-07-06T10:10:44;4.30;;;2.38;;
29812;SDS011;16707;48.106;11.548;2022-07-06T10:13:13;4.07;;;2.83;;
29812;SDS011;16707;48.106;11.548;2022-07-06T10:15:46;3.85;;;2.60;;
29812;SDS011;16707;48.106;11.548;2022-07-06T10:18:20;4.20;;;3.00;;
29812;SDS011;16707;48.106;11.548;2022-07-06T10:20:47;3.55;;;2.92;;
29812;SDS011;16707;48.106;11.548;2022-07-06T10:23:25;3.08;;;2.88;;
29812;SDS011;16707;48.106;11.548;2022-07-06T10:26:00;3.30;;;3.00;;
29812;SDS011;16707;48.106;11.548;2022-07-06T10:28:32;3.58;;;2.72;;
29812;SDS011;16707;48.106;11.548;2022-07-06T10:31:02;4.88;;;3.10;;
29812;SDS011;16707;48.106;11.548;2022-07-06T10:33:40;3.65;;;2.83;;
29812;SDS011;16707;48.106;11.548;2022-07-06T10:36:10;5.32;;;2.88;;
29812;SDS011;16707;48.106;11.548;2022-07-06T10:38:42;3.70;;;2.90;;
29812;SDS011;16707;48.106;11.548;2022-07-06T10:41:16;4.53;;;3.08;;
29812;SDS011;16707;48.106;11.548;2022-07-06T10:43:55;4.57;;;2.70;;
29812;SDS011;16707;48.106;11.548;2022-07-06T10:46:23;3.65;;;2.67;;
29812;SDS011;16707;48.106;11.548;2022-07-06T10:48:55;2.70;;;2.50;;
29812;SDS011;16707;48.106;11.548;2022-07-06T10:51:24;5.05;;;2.88;;
29812;SDS011;16707;48.106;11.548;2022-07-06T10:53:56;3.33;;;2.80;;
29812;SDS011;16707;48.106;11.548;2022-07-06T10:56:31;2.30;;;2.10;;
29812;SDS011;16707;48.106;11.548;2022-07-06T10:59:03;5.20;;;2.67;;
29812;SDS011;16707;48.106;11.548;2022-07-06T11:04:04;5.00;;;2.58;;
29812;SDS011;16707;48.106;11.548;2022-07-06T11:06:34;5.40;;;3.00;;
29812;SDS011;16707;48.106;11.548;2022-07-06T11:09:05;3.38;;;2.80;;
29812;SDS011;16707;48.106;11.548;2022-07-06T11:11:40;5.13;;;2.78;;
29812;SDS011;16707;48.106;11.548;2022-07-06T11:14:11;3.75;;;2.67;;
29812;SDS011;16707;48.106;11.548;2022-07-06T11:16:40;2.70;;;2.50;;
29812;SDS011;16707;48.106;11.548;2022-07-06T11:19:28;4.43;;;2.35;;
29812;SDS011;16707;48.106;11.548;2022-07-06T11:21:57;2.20;;;2.00;;
29812;SDS011;16707;48.106;11.548;2022-07-06T11:24:36;2.78;;;2.20;;
29812;SDS011;16707;48.106;11.548;2022-07-06T11:27:05;2.63;;;2.42;;
29812;SDS011;16707;48.106;11.548;2022-07-06T11:29:34;3.03;;;2.45;;
29812;SDS011;16707;48.106;11.548;2022-07-06T11:32:07;2.47;;;2.28;;
29812;SDS011;16707;48.106;11.548;2022-07-06T11:34:36;2.85;;;2.58;;
29812;SDS011;16707;48.106;11.548;2022-07-06T11:37:05;4.45;;;2.85;;
29812;SDS011;16707;48.106;11.548;2022-07-06T11:39:37;3.05;;;2.40;;
29812;SDS011;16707;48.106;11.548;2022-07-06T11:42:07;4.50;;;2.80;;
29812;SDS011;16707;48.106;11.548;2022-07-06T11:44:34;3.22;;;2.92;;
29812;SDS011;16707;48.106;11.548;2022-07-06T11:47:03;2.90;;;2.55;;
29812;SDS011;16707;48.106;11.548;2022-07-06T11:49:32;4.00;;;2.47;;
29812;SDS011;16707;48.106;11.548;2022-07-06T11:52:01;4.03;;;2.65;;
29812;SDS011;16707;48.106;11.548;2022-07-06T11:54:33;3.35;;;2.75;;
29812;SDS011;16707;48.106;11.548;2022-07-06T11:57:02;3.72;;;2.60;;
29812;SDS011;16707;48.106;11.548;2022-07-06T11:59:30;2.47;;;2.28;;
29812;SDS011;16707;48.106;11.548;2022-07-06T12:02:01;2.40;;;2.20;;
29812;SDS011;16707;48.106;11.548;2022-07-06T12:04:36;2.90;;;2.38;;
29812;SDS011;16707;48.106;11.548;2022-07-06T12:07:05;4.50;;;2.78;;
29812;SDS011;16707;48.106;11.548;2022-07-06T12:09:36;3.65;;;2.80;;
29812;SDS011;16707;48.106;11.548;2022-07-06T12:12:05;4.05;;;2.85;;
29812;SDS011;16707;48.106;11.548;2022-07-06T12:14:35;3.42;;;2.50;;
29812;SDS011;16707;48.106;11.548;2022-07-06T12:17:05;2.95;;;2.55;;
29812;SDS011;16707;48.106;11.548;2022-07-06T12:19:36;4.68;;;3.65;;
29812;SDS011;16707;48.106;11.548;2022-07-06T12:22:04;4.28;;;3.28;;
29812;SDS011;16707;48.106;11.548;2022-07-06T12:24:33;5.07;;;2.63;;
29812;SDS011;16707;48.106;11.548;2022-07-06T12:27:10;3.53;;;2.95;;
29812;SDS011;16707;48.106;11.548;2022-07-06T12:29:39;4.18;;;2.75;;
29812;SDS011;16707;48.106;11.548;2022-07-06T12:32:13;2.92;;;2.60;;
29812;SDS011;16707;48.106;11.548;2022-07-06T12:34:45;2.38;;;2.17;;
29812;SDS011;16707;48.106;11.548;2022-07-06T12:37:12;2.78;;;2.20;;
29812;SDS011;16707;48.106;11.548;2022-07-06T12:39:42;2.42;;;2.20;;
29812;SDS011;16707;48.106;11.548;2022-07-06T12:42:12;3.25;;;2.20;;
29812;SDS011;16707;48.106;11.548;2022-07-06T12:44:44;5.93;;;2.30;;
29812;SDS011;16707;48.106;11.548;2022-07-06T12:47:16;2.60;;;2.17;;
29812;SDS011;16707;48.106;11.548;2022-07-06T12:49:51;2.47;;;2.05;;
29812;SDS011;16707;48.106;11.548;2022-07-06T12:52:32;2.30;;;2.00;;
29812;SDS011;16707;48.106;11.548;2022-07-06T12:55:00;4.55;;;2.60;;
29812;SDS011;16707;48.106;11.548;2022-07-06T12:57:41;2.70;;;2.40;;
29812;SDS011;16707;48.106;11.548;2022-07-06T13:00:10;3.28;;;2.60;;
29812;SDS011;16707;48.106;11.548;2022-07-06T13:02:38;3.30;;;2.30;;
29812;SDS011;16707;48.106;11.548;2022-07-06T13:05:06;5.78;;;2.20;;
29812;SDS011;16707;48.106;11.548;2022-07-06T13:07:36;3.17;;;2.42;;
29812;SDS011;16707;48.106;11.548;2022-07-06T13:10:07;2.60;;;2.40;;
29812;SDS011;16707;48.106;11.548;2022-07-06T13:12:39;2.60;;;2.40;;
29812;SDS011;16707;48.106;11.548;2022-07-06T13:15:07;4.82;;;2.70;;
29812;SDS011;16707;48.106;11.548;2022-07-06T13:17:36;2.72;;;2.47;;
29812;SDS011;16707;48.106;11.548;2022-07-06T13:20:06;4.00;;;2.75;;
29812;SDS011;16707;48.106;11.548;2022-07-06T13:22:38;2.92;;;2.35;;
29812;SDS011;16707;48.106;11.548;2022-07-06T13:25:07;3.97;;;2.40;;
29812;SDS011;16707;48.106;11.548;2022-07-06T13:27:35;3.25;;;2.30;;
29812;SDS011;16707;48.106;11.548;2022-07-06T13:30:03;3.40;;;2.42;;
29812;SDS011;16707;48.106;11.548;2022-07-06T13:32:31;3.15;;;2.35;;
29812;SDS011;16707;48.106;11.548;2022-07-06T13:34:58;3.65;;;2.47;;
29812;SDS011;16707;48.106;11.548;2022-07-06T13:37:25;2.78;;;2.58;;
29812;SDS011;16707;48.106;11.548;2022-07-06T13:39:53;3.15;;;2.28;;
29812;SDS011;16707;48.106;11.548;2022-07-06T13:42:21;2.60;;;2.40;;
29812;SDS011;16707;48.106;11.548;2022-07-06T13:44:48;2.40;;;2.20;;
29812;SDS011;16707;48.106;11.548;2022-07-06T13:47:16;2.50;;;2.30;;
29812;SDS011;16707;48.106;11.548;2022-07-06T13:49:44;3.20;;;2.15;;
29812;SDS011;16707;48.106;11.548;2022-07-06T13:52:12;2.85;;;2.20;;
29812;SDS011;16707;48.106;11.548;2022-07-06T13:54:39;3.92;;;2.35;;
29812;SDS011;16707;48.106;11.548;2022-07-06T13:57:07;2.67;;;2.20;;
29812;SDS011;16707;48.106;11.548;2022-07-06T13:59:36;3.25;;;2.10;;
29812;SDS011;16707;48.106;11.548;2022-07-06T14:02:06;3.78;;;2.40;;
29812;SDS011;16707;48.106;11.548;2022-07-06T14:04:33;3.33;;;2.33;;
29812;SDS011;16707;48.106;11.548;2022-07-06T14:07:00;3.50;;;2.45;;
29812;SDS011;16707;48.106;11.548;2022-07-06T14:09:28;3.90;;;2.28;;
29812;SDS011;16707;48.106;11.548;2022-07-06T14:11:55;3.47;;;2.38;;
29812;SDS011;16707;48.106;11.548;2022-07-06T14:14:23;4.80;;;2.28;;
29812;SDS011;16707;48.106;11.548;2022-07-06T14:16:51;2.47;;;2.25;;
29812;SDS011;16707;48.106;11.548;2022-07-06T14:19:19;3.92;;;2.33;;
29812;SDS011;16707;48.106;11.548;2022-07-06T14:21:47;2.95;;;2.05;;
29812;SDS011;16707;48.106;11.548;2022-07-06T14:24:14;3.03;;;2.10;;
29812;SDS011;16707;48.106;11.548;2022-07-06T14:26:42;2.40;;;2.10;;
29812;SDS011;16707;48.106;11.548;2022-07-06T14:29:09;2.25;;;1.92;;
29812;SDS011;16707;48.106;11.548;2022-07-06T14:31:39;2.63;;;2.13;;
29812;SDS011;16707;48.106;11.548;2022-07-06T14:34:08;2.60;;;1.80;;
29812;SDS011;16707;48.106;11.548;2022-07-06T14:36:35;2.22;;;2.03;;
29812;SDS011;16707;48.106;11.548;2022-07-06T14:39:03;2.22;;;2.10;;
29812;SDS011;16707;48.106;11.548;2022-07-06T14:41:30;2.30;;;1.90;;
29812;SDS011;16707;48.106;11.548;2022-07-06T14:43:57;2.38;;;1.92;;
29812;SDS011;16707;48.106;11.548;2022-07-06T14:46:25;3.28;;;2.20;;
29812;SDS011;16707;48.106;11.548;2022-07-06T14:48:55;3.35;;;2.40;;
29812;SDS011;16707;48.106;11.548;2022-07-06T14:51:23;2.92;;;2.20;;
29812;SDS011;16707;48.106;11.548;2022-07-06T14:53:51;2.67;;;2.47;;
29812;SDS011;16707;48.106;11.548;2022-07-06T14:56:18;3.90;;;2.08;;
29812;SDS011;16707;48.106;11.548;2022-07-06T14:58:45;2.67;;;2.30;;